Time;durP1;ratioP1;P1;durP2;ratioP2;P2;SDS_P1;SDS_P2;PMS_P1;PMS_P2;Temp;Humidity;BMP_temperature;BMP_pressure;BME280_temperature;BME280_humidity;BME280_pressure;Samples;Min_cycle;Max_cycle;Signal;HPM_P1;HPM_P2
2022/08/03 00:00:07;;;;;;;16.63;2.80;;;;;;;20.21;85.10;101404.75;4973329;28;20089;-48
2022/08/03 00:02:32;;;;;;;20.20;3.08;;;;;;;20.23;85.19;101399.91;4973051;28;20034;-49
2022/08/03 00:04:57;;;;;;;24.30;2.92;;;;;;;20.20;85.20;101405.84;4973294;28;20435;-50
2022/08/03 00:07:23;;;;;;;21.27;3.40;;;;;;;20.19;85.60;101406.88;4961763;28;20063;-49
2022/08/03 00:09:49;;;;;;;25.17;2.78;;;;;;;20.17;85.86;101406.31;4968477;28;20026;-51
2022/08/03 00:12:14;;;;;;;17.30;2.85;;;;;;;20.15;85.80;101406.53;4974204;28;20030;-49
2022/08/03 00:14:40;;;;;;;15.48;2.38;;;;;;;20.16;85.82;101399.97;4973998;28;20383;-51
2022/08/03 00:17:05;;;;;;;19.58;2.97;;;;;;;20.15;85.64;101401.06;4974245;28;20110;-50
2022/08/03 00:19:30;;;;;;;21.17;3.20;;;;;;;20.12;86.16;101400.69;4973670;28;20490;-50
2022/08/03 00:21:56;;;;;;;21.48;3.88;;;;;;;20.14;85.78;101399.41;4974017;28;20478;-51
2022/08/03 00:24:21;;;;;;;23.75;3.17;;;;;;;20.12;86.09;101395.22;4973459;28;20553;-48
2022/08/03 00:26:46;;;;;;;20.00;3.35;;;;;;;20.11;86.22;101393.53;4973721;28;20023;-52
2022/08/03 00:29:12;;;;;;;19.33;3.35;;;;;;;20.11;86.26;101388.06;4972898;28;20031;-50
2022/08/03 00:31:37;;;;;;;17.08;2.88;;;;;;;20.10;86.35;101380.97;4973551;28;20053;-49
2022/08/03 00:34:02;;;;;;;21.35;3.17;;;;;;;20.06;86.51;101388.78;4968188;28;20495;-49
2022/08/03 00:36:28;;;;;;;20.45;4.03;;;;;;;20.04;86.72;101390.09;4972395;28;20023;-52
2022/08/03 00:38:54;;;;;;;25.35;3.17;;;;;;;20.03;86.66;101389.25;4972733;28;20035;-50
2022/08/03 00:41:19;;;;;;;22.98;3.20;;;;;;;20.01;87.11;101380.47;4968889;28;20034;-49
2022/08/03 00:43:46;;;;;;;23.95;3.47;;;;;;;19.98;87.07;101393.72;4973571;28;20106;-51
2022/08/03 00:46:11;;;;;;;17.55;2.85;;;;;;;19.97;87.41;101386.63;4971693;28;20371;-49
2022/08/03 00:48:37;;;;;;;20.83;3.33;;;;;;;19.95;87.70;101386.81;4960367;28;20046;-50
2022/08/03 00:51:02;;;;;;;15.63;2.97;;;;;;;19.95;87.53;101376.72;4972405;28;20460;-46
2022/08/03 00:53:28;;;;;;;17.98;2.90;;;;;;;19.95;87.74;101376.72;4973463;28;20030;-50
2022/08/03 00:55:53;;;;;;;20.30;3.65;;;;;;;19.94;87.66;101377.81;4972411;28;20035;-50
2022/08/03 00:58:18;;;;;;;18.98;3.40;;;;;;;19.94;87.95;101374.25;4973089;28;20033;-52
2022/08/03 01:00:44;;;;;;;23.08;3.40;;;;;;;19.91;87.96;101371.97;4972406;28;20101;-49
2022/08/03 01:03:10;;;;;;;21.15;3.30;;;;;;;19.91;88.17;101371.97;4967406;28;20410;-49
2022/08/03 01:05:52;;;;;;;28.48;4.20;;;;;;;19.88;88.21;101367.81;4967003;28;20109;-49
2022/08/03 01:08:39;;;;;;;17.98;2.95;;;;;;;19.87;88.38;101368.84;4972910;28;20026;-47
2022/08/03 01:11:24;;;;;;;23.75;3.05;;;;;;;19.87;88.66;101365.31;4972717;28;20027;-50
2022/08/03 01:14:30;;;;;;;27.40;3.50;;;;;;;19.86;88.45;101375.41;4973095;28;20027;-50
2022/08/03 01:16:59;;;;;;;27.15;4.13;;;;;;;19.83;88.48;101364.94;4889233;29;20043;-48
2022/08/03 01:19:58;;;;;;;24.13;2.97;;;;;;;19.79;88.89;101365.63;4935486;28;20039;-48
2022/08/03 01:23:00;;;;;;;27.20;3.38;;;;;;;19.78;88.85;101362.06;4936409;29;20050;-53
2022/08/03 01:25:53;;;;;;;25.73;4.05;;;;;;;19.74;89.06;101358.13;4953228;28;20462;-49
2022/08/03 01:28:28;;;;;;;29.20;3.90;;;;;;;19.72;89.17;101362.97;4953368;29;20039;-51
2022/08/03 01:30:56;;;;;;;20.27;3.30;;;;;;;19.68;89.57;101359.88;4951120;28;20496;-48
2022/08/03 01:33:25;;;;;;;22.50;3.17;;;;;;;19.68;89.71;101361.78;4968586;28;20042;-49
2022/08/03 01:35:59;;;;;;;25.38;3.53;;;;;;;19.65;89.63;101352.09;4953855;28;20484;-52
2022/08/03 01:38:28;;;;;;;23.00;3.30;;;;;;;19.65;90.16;101359.47;4954898;28;20034;-51
2022/08/03 01:40:55;;;;;;;27.42;3.67;;;;;;;19.65;90.26;101356.75;4970855;28;20464;-53
2022/08/03 01:43:23;;;;;;;26.55;3.72;;;;;;;19.65;89.77;101354.00;4954714;28;20030;-51
2022/08/03 01:45:49;;;;;;;33.55;4.65;;;;;;;19.63;89.92;101358.88;4954522;28;20094;-51
2022/08/03 01:48:16;;;;;;;24.83;4.22;;;;;;;19.63;89.93;101351.50;4955044;28;20449;-51
2022/08/03 01:50:44;;;;;;;29.58;3.95;;;;;;;19.64;89.86;101355.06;4971215;28;20033;-53
2022/08/03 01:53:11;;;;;;;26.02;4.20;;;;;;;19.61;90.29;101350.88;4954423;28;20066;-50
2022/08/03 01:55:38;;;;;;;18.85;3.17;;;;;;;19.60;90.57;101353.88;4954392;28;20070;-52
2022/08/03 01:58:04;;;;;;;26.10;3.92;;;;;;;19.57;90.71;101343.41;4954413;28;20023;-50
2022/08/03 02:00:30;;;;;;;26.45;3.60;;;;;;;19.50;90.65;101347.03;4954165;28;20035;-52
2022/08/03 02:02:57;;;;;;;33.07;3.50;;;;;;;19.49;91.10;101347.28;4952701;28;20024;-52
2022/08/03 02:05:23;;;;;;;23.27;3.40;;;;;;;19.46;91.43;101340.38;4954174;28;20026;-52
2022/08/03 02:07:48;;;;;;;18.40;4.00;;;;;;;19.47;91.61;101338.47;4954656;28;20418;-51
2022/08/03 02:10:15;;;;;;;28.67;4.03;;;;;;;19.48;91.50;101345.59;4954491;28;20038;-52
2022/08/03 02:12:44;;;;;;;23.40;3.42;;;;;;;19.44;91.34;101338.94;4954447;28;20437;-52
2022/08/03 02:15:10;;;;;;;24.25;3.67;;;;;;;19.45;91.46;101354.25;4970278;28;20067;-52
2022/08/03 02:17:36;;;;;;;28.00;4.03;;;;;;;19.41;91.58;101342.13;4954361;28;20034;-51
2022/08/03 02:20:03;;;;;;;14.63;3.30;;;;;;;19.39;91.67;101350.53;4971748;28;20038;-51
2022/08/03 02:22:28;;;;;;;17.13;3.17;;;;;;;19.39;91.47;101342.34;4954338;28;20030;-51
2022/08/03 02:24:54;;;;;;;27.75;3.58;;;;;;;19.28;91.59;101341.22;4954408;28;20033;-51
2022/08/03 02:27:23;;;;;;;12.40;2.97;;;;;;;19.24;92.33;101342.72;4971185;28;20656;-50
2022/08/03 02:29:55;;;;;;;18.65;3.90;;;;;;;19.20;92.50;101338.78;4954067;28;20038;-52
2022/08/03 02:32:24;;;;;;;19.65;2.88;;;;;;;19.21;92.63;101339.63;4975314;28;20145;-52
2022/08/03 02:34:52;;;;;;;24.67;3.80;;;;;;;19.16;92.62;101334.84;4958180;28;20051;-53
2022/08/03 02:37:18;;;;;;;20.40;3.22;;;;;;;19.16;92.63;101336.75;4958721;28;20038;-51
2022/08/03 02:39:45;;;;;;;15.95;3.10;;;;;;;19.14;92.65;101338.84;4958881;28;20510;-52
2022/08/03 02:42:13;;;;;;;14.50;2.60;;;;;;;19.12;92.59;101333.66;4976406;28;20509;-51
2022/08/03 02:44:39;;;;;;;18.75;3.20;;;;;;;19.06;93.07;101332.66;4957978;28;20777;-51
2022/08/03 02:47:07;;;;;;;17.88;3.33;;;;;;;19.05;93.14;101330.16;4957375;28;20496;-53
2022/08/03 02:49:32;;;;;;;;;;;;;;;19.00;93.18;101339.00;4975403;28;20031;-49
2022/08/03 02:51:57;;;;;;;21.33;3.30;;;;;;;18.99;93.31;101329.16;4971373;28;19942;-51
2022/08/03 02:54:25;;;;;;;16.75;3.20;;;;;;;18.99;93.58;101325.59;4960431;28;20294;-51
2022/08/03 02:56:51;;;;;;;16.88;2.83;;;;;;;18.96;93.48;101326.06;4967395;28;20364;-53
2022/08/03 02:59:17;;;;;;;25.83;3.70;;;;;;;18.96;93.62;101320.59;4975894;28;20142;-49
2022/08/03 03:01:43;;;;;;;13.98;2.88;;;;;;;18.99;93.61;101320.16;4958808;28;20065;-51
2022/08/03 03:04:10;;;;;;;12.80;2.92;;;;;;;18.97;93.41;101314.91;4964555;28;20394;-52
2022/08/03 03:06:36;;;;;;;13.00;2.95;;;;;;;18.96;93.53;101318.72;4958466;28;20573;-48
2022/08/03 03:09:01;;;;;;;8.10;2.65;;;;;;;18.93;93.58;101321.03;4958754;28;20502;-47
2022/08/03 03:11:27;;;;;;;19.05;3.45;;;;;;;18.86;93.81;101321.94;4958575;28;20113;-50
2022/08/03 03:13:54;;;;;;;12.82;2.90;;;;;;;18.83;94.03;101327.03;4958581;28;20030;-50
2022/08/03 03:16:20;;;;;;;16.70;2.97;;;;;;;18.81;94.48;101326.41;4957989;28;20425;-50
2022/08/03 03:18:46;;;;;;;15.05;3.25;;;;;;;18.82;94.48;101322.63;4959038;28;20027;-51
2022/08/03 03:21:15;;;;;;;19.92;3.55;;;;;;;18.82;94.26;101325.34;4976120;28;20035;-48
2022/08/03 03:23:41;;;;;;;20.33;3.50;;;;;;;18.80;94.23;101325.59;4958451;28;20483;-49
2022/08/03 03:26:07;;;;;;;19.77;3.60;;;;;;;18.80;94.22;101322.00;4958345;28;20049;-51
2022/08/03 03:28:35;;;;;;;17.90;3.78;;;;;;;18.80;94.50;101331.03;4958536;28;20459;-48
2022/08/03 03:31:01;;;;;;;20.15;3.50;;;;;;;18.77;94.18;101323.31;4958517;28;20026;-50
2022/08/03 03:33:26;;;;;;;20.70;4.43;;;;;;;18.71;94.58;101324.16;4970804;28;20532;-51
2022/08/03 03:35:52;;;;;;;30.15;3.70;;;;;;;18.70;94.88;101332.56;4973627;28;20050;-49
2022/08/03 03:38:18;;;;;;;22.27;4.20;;;;;;;18.74;94.99;101328.31;4958258;28;20031;-51
2022/08/03 03:40:44;;;;;;;19.20;3.50;;;;;;;18.74;94.70;101333.78;4957928;28;20048;-51
2022/08/03 03:43:10;;;;;;;18.15;4.25;;;;;;;18.71;94.65;101326.06;4973968;28;20462;-51
2022/08/03 03:45:36;;;;;;;12.95;3.60;;;;;;;18.71;94.46;101317.88;4974435;28;20439;-48
2022/08/03 03:48:03;;;;;;;17.48;3.35;;;;;;;18.65;94.39;101325.88;4975413;28;20026;-49
2022/08/03 03:50:29;;;;;;;19.83;3.35;;;;;;;18.66;94.64;101318.53;4975550;28;20043;-51
2022/08/03 03:52:55;;;;;;;24.02;4.18;;;;;;;18.63;94.71;101329.91;4975016;28;20056;-50
2022/08/03 03:55:20;;;;;;;18.35;3.50;;;;;;;18.62;94.83;101329.06;4957787;28;20529;-51
2022/08/03 03:57:45;;;;;;;16.67;3.33;;;;;;;18.65;95.13;101328.63;4974764;28;20482;-52
2022/08/03 04:00:13;;;;;;;14.60;2.78;;;;;;;18.62;94.89;101328.25;4974351;28;20434;-49
2022/08/03 04:02:38;;;;;;;19.92;3.83;;;;;;;18.61;95.18;101327.38;4974094;28;20062;-50
2022/08/03 04:11:05;;;;;;;18.98;3.80;;;;;;;18.52;95.81;101327.91;4959712;28;20054;-53
2022/08/03 04:13:39;;;;;;;18.50;4.35;;;;;;;18.51;95.77;101324.34;4974653;28;20077;-52
2022/08/03 04:16:06;;;;;;;19.08;3.58;;;;;;;18.55;96.00;101331.00;4974217;28;20034;-52
2022/08/03 04:18:34;;;;;;;24.98;4.85;;;;;;;18.53;96.04;101333.13;4957464;28;20031;-53
2022/08/03 04:21:02;;;;;;;23.17;3.40;;;;;;;18.53;96.21;101333.13;4974244;28;20046;-52
2022/08/03 04:23:30;;;;;;;19.17;4.30;;;;;;;18.59;96.06;101336.88;4969946;28;20081;-51
2022/08/03 04:25:56;;;;;;;20.17;4.05;;;;;;;18.54;96.12;101336.69;4961425;28;20046;-52
2022/08/03 04:28:22;;;;;;;25.75;4.88;;;;;;;18.53;96.03;101338.56;4957199;28;20039;-53
2022/08/03 04:30:49;;;;;;;27.88;3.67;;;;;;;18.57;96.04;101345.25;4974117;28;20039;-54
2022/08/03 04:33:15;;;;;;;17.02;3.47;;;;;;;18.59;96.00;101342.31;4956692;28;20023;-51
2022/08/03 04:35:43;;;;;;;23.85;4.00;;;;;;;18.60;96.23;101338.53;4973375;28;20042;-49
2022/08/03 04:38:12;;;;;;;24.95;3.70;;;;;;;18.57;96.18;101342.53;4956009;28;20094;-48
2022/08/03 04:40:40;;;;;;;29.45;4.15;;;;;;;18.66;96.22;101348.53;4948948;28;20513;-52
2022/08/03 04:43:08;;;;;;;18.20;4.10;;;;;;;18.65;96.07;101339.53;4955036;28;20042;-50
2022/08/03 04:45:34;;;;;;;18.17;4.15;;;;;;;18.62;95.89;101350.06;4972349;28;20031;-52
2022/08/03 04:48:00;;;;;;;20.92;4.50;;;;;;;18.65;96.05;101342.25;4954961;28;20499;-49
2022/08/03 04:50:26;;;;;;;23.23;4.10;;;;;;;18.68;95.77;101351.03;4972174;28;20039;-51
2022/08/03 04:52:52;;;;;;;20.30;3.90;;;;;;;18.63;95.59;101349.81;4971813;28;20089;-51
2022/08/03 04:55:26;;;;;;;19.92;4.18;;;;;;;18.57;95.80;101350.72;4968100;28;20438;-51
2022/08/03 04:57:51;;;;;;;24.85;4.50;;;;;;;18.55;96.17;101352.81;4970265;28;20818;-52
2022/08/03 05:00:17;;;;;;;25.80;5.43;;;;;;;18.55;96.32;101352.81;4972063;28;20082;-52
2022/08/03 05:02:42;;;;;;;28.48;4.45;;;;;;;18.57;96.43;101367.06;4971338;28;20470;-49
2022/08/03 05:05:08;;;;;;;20.45;4.03;;;;;;;18.69;96.99;101363.59;4965863;28;20386;-50
2022/08/03 05:07:33;;;;;;;22.30;4.25;;;;;;;18.79;96.62;101363.97;4955396;28;20447;-52
2022/08/03 05:09:59;;;;;;;25.58;4.70;;;;;;;18.78;95.93;101370.50;4959065;28;20110;-51
2022/08/03 05:12:24;;;;;;;18.73;4.32;;;;;;;18.85;95.78;101366.66;4969407;28;20035;-51
2022/08/03 05:14:49;;;;;;;22.80;4.28;;;;;;;18.89;95.50;101364.28;4969325;28;20095;-50
2022/08/03 05:17:15;;;;;;;13.82;4.22;;;;;;;18.96;95.52;101370.53;4969241;28;20066;-52
2022/08/03 05:19:40;;;;;;;25.63;4.60;;;;;;;18.93;95.06;101372.84;4969415;28;20035;-49
2022/08/03 05:22:05;;;;;;;29.88;4.82;;;;;;;19.05;95.14;101374.63;4969663;28;20034;-51
2022/08/03 05:24:31;;;;;;;18.55;4.38;;;;;;;19.08;94.60;101371.44;4969484;28;20087;-49
2022/08/03 05:26:56;;;;;;;25.70;4.30;;;;;;;19.15;94.66;101378.75;4968159;28;20039;-49
2022/08/03 05:29:21;;;;;;;23.15;4.15;;;;;;;19.15;94.61;101368.66;4950554;29;20103;-51
2022/08/03 05:31:47;;;;;;;22.83;5.03;;;;;;;19.20;94.19;101368.81;4959707;28;20598;-48
2022/08/03 05:34:12;;;;;;;27.63;4.68;;;;;;;19.29;94.20;101375.63;4970442;28;20510;-52
2022/08/03 05:36:38;;;;;;;14.05;4.10;;;;;;;19.30;93.66;101371.03;4969728;28;20081;-51
2022/08/03 05:39:03;;;;;;;18.65;4.25;;;;;;;19.34;93.61;101371.41;4969511;28;20097;-48
2022/08/03 05:41:29;;;;;;;23.77;4.53;;;;;;;19.44;93.14;101378.00;4969637;28;20042;-51
2022/08/03 05:43:54;;;;;;;18.35;3.92;;;;;;;19.38;92.60;101373.44;4964900;28;20031;-51
2022/08/03 05:46:23;;;;;;;20.50;4.78;;;;;;;19.42;92.82;101380.09;4969058;28;20035;-49
2022/08/03 05:48:48;;;;;;;29.42;4.75;;;;;;;19.43;93.23;101383.66;4969250;28;20490;-50
2022/08/03 05:51:14;;;;;;;20.48;4.68;;;;;;;19.45;92.89;101379.66;4969689;28;20056;-51
2022/08/03 05:53:42;;;;;;;28.75;5.25;;;;;;;19.42;93.11;101380.09;4968764;28;20034;-50
2022/08/03 05:56:08;;;;;;;21.35;4.38;;;;;;;19.44;93.13;101375.25;4968017;28;20031;-48
2022/08/03 05:58:34;;;;;;;22.35;4.72;;;;;;;19.52;93.10;101380.41;4968255;28;20549;-50
2022/08/03 06:00:59;;;;;;;24.00;5.47;;;;;;;19.57;92.63;101373.44;4951485;28;20074;-48
2022/08/03 06:03:25;;;;;;;27.40;5.65;;;;;;;19.66;92.43;101369.31;4968904;28;20058;-48
2022/08/03 06:05:50;;;;;;;24.92;5.63;;;;;;;19.73;91.93;101365.47;4970756;28;20065;-52
2022/08/03 06:08:15;;;;;;;27.48;6.15;;;;;;;19.68;91.74;101361.78;4972614;28;20588;-49
2022/08/03 06:10:41;;;;;;;29.00;6.22;;;;;;;19.77;91.20;101367.75;4972304;28;20328;-48
2022/08/03 06:13:06;;;;;;;31.67;6.28;;;;;;;19.70;91.72;101376.03;4964238;28;20371;-49
2022/08/03 06:15:33;;;;;;;25.77;5.93;;;;;;;19.67;91.97;101365.56;4953193;29;20065;-50
2022/08/03 06:17:59;;;;;;;26.87;7.77;;;;;;;19.60;92.07;101375.72;4968423;28;20457;-47
2022/08/03 06:20:24;;;;;;;30.40;6.22;;;;;;;19.54;92.67;101382.91;4981354;28;20401;-47
2022/08/03 06:22:50;;;;;;;31.48;6.32;;;;;;;19.62;92.60;101379.06;4972228;28;20098;-49
2022/08/03 06:25:15;;;;;;;32.58;5.90;;;;;;;19.75;92.34;101378.91;4955250;28;20019;-51
2022/08/03 06:27:41;;;;;;;29.13;6.78;;;;;;;19.84;91.68;101372.06;4971276;28;20045;-51
2022/08/03 06:30:09;;;;;;;26.23;6.32;;;;;;;19.85;90.89;101373.75;4972474;28;20459;-51
2022/08/03 06:32:35;;;;;;;32.88;6.72;;;;;;;20.01;91.12;101388.66;4972352;28;20030;-51
2022/08/03 06:35:00;;;;;;;32.75;7.25;;;;;;;20.01;90.49;101376.88;4971922;28;20053;-52
2022/08/03 06:37:26;;;;;;;37.22;6.47;;;;;;;19.97;90.54;101378.41;4954012;28;20030;-49
2022/08/03 06:39:52;;;;;;;24.20;8.35;;;;;;;20.03;89.95;101380.22;4976783;28;20030;-49
2022/08/03 06:42:18;;;;;;;25.08;8.05;;;;;;;20.07;89.61;101384.16;4979718;28;20380;-49
2022/08/03 06:44:43;;;;;;;44.45;10.45;;;;;;;20.20;89.01;101381.22;4972723;28;20031;-49
2022/08/03 06:47:09;;;;;;;39.63;11.43;;;;;;;20.30;88.36;101386.97;4972429;28;20022;-50
2022/08/03 06:49:34;;;;;;;23.35;10.48;;;;;;;20.33;88.02;101391.97;4968918;28;20083;-49
2022/08/03 06:51:59;;;;;;;35.92;10.43;;;;;;;20.33;87.77;101381.03;4971383;28;20026;-47
2022/08/03 06:54:25;;;;;;;31.67;9.50;;;;;;;20.32;87.83;101390.28;4972205;28;20122;-50
2022/08/03 06:56:50;;;;;;;29.17;10.70;;;;;;;20.36;87.27;101390.66;4972203;28;20102;-50
2022/08/03 06:59:16;;;;;;;24.80;10.23;;;;;;;20.24;87.78;101387.88;4971667;28;20118;-51
2022/08/03 07:01:41;;;;;;;28.52;9.40;;;;;;;20.31;87.98;101391.38;4971871;28;20441;-51
2022/08/03 07:04:06;;;;;;;28.58;9.55;;;;;;;20.35;87.72;101395.31;4972019;28;20058;-49
2022/08/03 07:06:32;;;;;;;33.72;9.25;;;;;;;20.42;87.33;101400.66;4972068;28;20034;-50
2022/08/03 07:08:58;;;;;;;30.63;7.90;;;;;;;20.49;86.94;101401.41;4972222;28;20023;-52
2022/08/03 07:11:24;;;;;;;22.08;8.10;;;;;;;20.42;87.07;101406.13;4971964;28;20027;-48
2022/08/03 07:13:49;;;;;;;37.50;8.45;;;;;;;20.52;86.51;101413.78;4971694;28;20089;-50
2022/08/03 07:16:14;;;;;;;30.63;8.98;;;;;;;20.61;85.75;101413.19;4971642;28;20026;-51
2022/08/03 07:18:40;;;;;;;25.38;9.18;;;;;;;20.81;84.32;101423.00;4971773;28;20026;-51
2022/08/03 07:21:06;;;;;;;35.28;9.80;;;;;;;20.85;84.02;101420.63;4971590;28;20062;-50
2022/08/03 07:23:32;;;;;;;33.27;9.83;;;;;;;20.87;83.91;101422.06;4971731;28;20490;-52
2022/08/03 07:25:57;;;;;;;25.58;9.85;;;;;;;21.00;83.55;101423.72;4975430;28;20290;-50
2022/08/03 07:28:22;;;;;;;28.20;10.88;;;;;;;21.17;82.33;101423.84;4963159;28;20035;-51
2022/08/03 07:30:48;;;;;;;35.15;10.13;;;;;;;21.27;80.86;101427.69;4969156;28;20061;-51
2022/08/03 07:33:14;;;;;;;35.22;10.35;;;;;;;21.31;80.63;101429.94;4973109;28;20097;-51
2022/08/03 07:35:39;;;;;;;34.60;9.50;;;;;;;21.43;81.31;101433.50;4963848;28;20415;-52
2022/08/03 07:38:04;;;;;;;31.15;9.20;;;;;;;21.39;80.88;101435.06;4970375;28;20019;-50
2022/08/03 07:40:30;;;;;;;25.75;8.00;;;;;;;21.64;80.64;101435.63;4973079;28;20437;-52
2022/08/03 07:42:57;;;;;;;22.45;7.90;;;;;;;21.88;79.52;101441.03;4973463;28;20565;-49
2022/08/03 07:45:23;;;;;;;24.30;6.10;;;;;;;21.94;78.58;101440.06;4973935;28;20524;-50
2022/08/03 07:47:48;;;;;;;24.58;7.03;;;;;;;21.72;78.72;101442.63;4976507;28;20062;-52
2022/08/03 07:50:13;;;;;;;25.05;7.30;;;;;;;21.64;79.57;101441.13;4973728;28;20035;-49
2022/08/03 07:52:48;;;;;;;27.02;8.05;;;;;;;21.42;79.22;101434.59;4973238;28;20051;-50
2022/08/03 07:55:15;;;;;;;23.48;8.07;;;;;;;21.63;80.17;101450.38;4973614;28;20442;-52
2022/08/03 07:57:40;;;;;;;25.67;8.20;;;;;;;21.93;78.01;101443.88;4971762;28;20762;-50
2022/08/03 08:00:11;;;;;;;23.33;7.80;;;;;;;22.14;76.72;101439.63;4962658;28;20291;-49
2022/08/03 08:02:36;;;;;;;26.75;7.53;;;;;;;22.27;76.11;101444.03;4954137;29;20380;-50
2022/08/03 08:05:02;;;;;;;23.45;7.78;;;;;;;22.21;76.38;101450.50;4962326;28;20055;-48
2022/08/03 08:07:27;;;;;;;23.92;7.50;;;;;;;22.63;75.39;101441.94;4972475;28;20134;-48
2022/08/03 08:09:52;;;;;;;27.42;8.20;;;;;;;22.98;73.29;101450.78;4972585;28;20054;-48
2022/08/03 08:12:18;;;;;;;26.20;7.55;;;;;;;23.19;72.56;101437.38;4967201;28;20335;-48
2022/08/03 08:14:46;;;;;;;19.42;6.78;;;;;;;23.14;71.87;101445.53;4953874;28;20062;-49
2022/08/03 08:17:12;;;;;;;20.20;6.63;;;;;;;23.41;71.68;101442.94;4972637;28;20030;-52
2022/08/03 08:19:38;;;;;;;21.10;6.55;;;;;;;24.00;68.75;101437.66;4970332;28;20042;-51
2022/08/03 08:22:03;;;;;;;27.92;7.28;;;;;;;24.12;67.11;101434.78;4973418;28;20027;-50
2022/08/03 08:24:32;;;;;;;34.70;7.65;;;;;;;23.81;68.74;101437.16;4974152;28;20089;-47
2022/08/03 08:26:58;;;;;;;23.92;7.25;;;;;;;23.61;69.70;101445.13;4973249;28;20041;-47
2022/08/03 08:29:24;;;;;;;28.75;6.55;;;;;;;24.64;67.74;101439.72;4953963;28;20029;-50
2022/08/03 08:31:49;;;;;;;30.48;7.35;;;;;;;24.99;63.96;101432.84;4969365;28;20043;-48
2022/08/03 08:34:15;;;;;;;27.75;7.30;;;;;;;25.15;63.05;101433.78;4968817;28;20081;-49
2022/08/03 08:36:40;;;;;;;27.38;7.13;;;;;;;25.83;61.47;101433.91;4970170;28;20081;-50
2022/08/03 08:39:06;;;;;;;26.58;6.40;;;;;;;26.00;59.94;101428.19;4970630;28;20026;-51
2022/08/03 08:41:34;;;;;;;27.90;6.07;;;;;;;27.07;57.13;101436.59;4960373;28;20391;-49
2022/08/03 08:44:00;;;;;;;19.13;4.80;;;;;;;27.03;57.34;101440.19;4966283;28;20478;-48
2022/08/03 08:46:26;;;;;;;25.25;5.05;;;;;;;27.08;55.95;101440.19;4972066;28;20030;-49
2022/08/03 08:48:52;;;;;;;24.92;4.35;;;;;;;26.49;57.24;101442.38;4950673;28;20501;-51
2022/08/03 08:51:19;;;;;;;25.30;5.00;;;;;;;27.19;54.55;101449.31;4964769;28;20035;-47
2022/08/03 08:53:49;;;;;;;34.63;4.53;;;;;;;27.91;54.62;101442.50;4965934;28;20023;-50
2022/08/03 08:56:15;;;;;;;26.95;4.40;;;;;;;28.20;52.85;101448.13;4960857;28;20030;-46
2022/08/03 08:58:51;;;;;;;28.17;4.47;;;;;;;28.45;51.56;101461.00;4955900;28;20085;-49
2022/08/03 09:01:20;;;;;;;24.20;4.80;;;;;;;28.65;50.11;101462.81;4972078;28;20056;-47
2022/08/03 09:03:46;;;;;;;20.83;4.43;;;;;;;28.78;50.55;101463.25;4972553;28;20022;-48
2022/08/03 09:06:11;;;;;;;24.27;4.10;;;;;;;29.24;49.06;101471.19;4969302;28;20542;-48
2022/08/03 09:08:37;;;;;;;32.97;5.60;;;;;;;27.74;53.07;101464.91;4972779;28;20398;-50
2022/08/03 09:11:02;;;;;;;30.02;5.43;;;;;;;27.83;52.78;101462.41;4967756;28;20122;-49
2022/08/03 09:13:29;;;;;;;27.67;5.25;;;;;;;27.97;52.35;101465.41;4971282;28;20320;-47
2022/08/03 09:16:09;;;;;;;39.60;5.82;;;;;;;28.24;51.29;101462.22;4972452;28;20422;-49
2022/08/03 09:18:35;;;;;;;36.85;5.40;;;;;;;28.85;50.07;101470.13;4972138;28;20038;-51
2022/08/03 09:21:20;;;;;;;30.63;5.20;;;;;;;28.83;50.17;101468.75;4972306;28;20019;-50
2022/08/03 09:23:47;;;;;;;26.90;5.20;;;;;;;29.63;48.52;101468.25;4972449;28;20031;-50
2022/08/03 09:26:25;;;;;;;25.52;5.30;;;;;;;29.39;48.61;101467.44;4972364;28;20097;-50
2022/08/03 09:28:59;;;;;;;27.60;5.18;;;;;;;28.54;49.05;101468.69;4972014;28;20495;-48
2022/08/03 09:31:35;;;;;;;28.85;5.28;;;;;;;29.11;49.23;101467.16;4972057;28;20034;-49
2022/08/03 09:34:06;;;;;;;38.15;5.13;;;;;;;29.71;47.78;101470.41;4972080;28;20051;-50
2022/08/03 09:36:43;;;;;;;31.88;4.57;;;;;;;30.12;47.05;101464.34;4972132;28;20058;-48
2022/08/03 09:39:14;;;;;;;27.83;4.53;;;;;;;30.32;46.45;101462.44;4971983;28;20076;-50
2022/08/03 09:41:46;;;;;;;42.67;4.80;;;;;;;29.57;47.52;101474.16;4971920;28;20078;-49
2022/08/03 09:44:11;;;;;;;34.28;4.68;;;;;;;29.73;47.24;101464.59;4972436;28;20034;-49
2022/08/03 09:46:55;;;;;;;36.97;4.73;;;;;;;30.07;47.12;101467.19;4972210;28;20034;-50
2022/08/03 09:49:21;;;;;;;27.00;4.82;;;;;;;29.30;47.93;101470.81;4972392;28;20474;-52
2022/08/03 09:51:47;;;;;;;27.45;4.53;;;;;;;28.45;50.60;101468.50;4971407;28;20181;-52
2022/08/03 09:54:12;;;;;;;36.17;5.22;;;;;;;28.13;51.47;101469.75;4969102;28;20070;-48
2022/08/03 09:56:43;;;;;;;21.83;4.18;;;;;;;28.77;50.21;101464.38;4965028;28;20036;-51
2022/08/03 09:59:10;;;;;;;30.35;4.45;;;;;;;29.46;48.59;101457.63;4954916;28;20035;-51
2022/08/03 10:01:36;;;;;;;31.13;5.00;;;;;;;28.84;49.22;101470.41;4960250;28;20023;-50
2022/08/03 10:04:02;;;;;;;31.30;4.30;;;;;;;29.29;48.43;101465.59;4956283;28;20023;-52
2022/08/03 10:06:27;;;;;;;41.60;5.45;;;;;;;30.00;47.57;101471.47;4967664;28;20534;-50
2022/08/03 10:09:10;;;;;;;31.17;4.05;;;;;;;30.02;47.04;101469.19;4972178;28;20038;-48
2022/08/03 10:11:36;;;;;;;39.03;4.57;;;;;;;30.84;45.20;101475.25;4970533;28;20375;-49
2022/08/03 10:14:07;;;;;;;27.88;4.45;;;;;;;29.95;46.02;101472.34;4971298;28;20049;-49
2022/08/03 10:16:34;;;;;;;36.97;5.30;;;;;;;29.76;47.15;101466.75;4971850;28;20045;-52
2022/08/03 10:19:00;;;;;;;39.83;5.25;;;;;;;29.28;49.37;101469.47;4972139;28;20090;-49
2022/08/03 10:21:30;;;;;;;34.10;5.40;;;;;;;29.36;48.82;101460.53;4954964;28;20031;-51
2022/08/03 10:23:56;;;;;;;35.70;4.85;;;;;;;29.88;47.98;101469.09;4971587;28;20027;-50
2022/08/03 10:26:25;;;;;;;26.13;4.97;;;;;;;30.81;46.69;101464.72;4953923;28;20030;-51
2022/08/03 10:28:53;;;;;;;34.67;5.10;;;;;;;30.90;46.40;101464.03;4954707;28;20135;-49
2022/08/03 10:31:19;;;;;;;38.22;5.90;;;;;;;31.61;44.45;101459.13;4953878;28;20093;-51
2022/08/03 10:33:48;;;;;;;40.63;5.72;;;;;;;32.26;43.19;101458.03;4952074;28;20022;-50
2022/08/03 10:36:15;;;;;;;38.80;4.90;;;;;;;32.04;42.09;101464.34;4971754;28;20479;-50
2022/08/03 10:38:48;;;;;;;38.10;5.47;;;;;;;31.10;44.53;101455.34;4969479;28;20108;-51
2022/08/03 10:41:15;;;;;;;24.25;4.78;;;;;;;30.40;44.69;101465.34;4953859;28;20062;-50
2022/08/03 10:44:04;;;;;;;25.00;4.78;;;;;;;29.46;47.13;101468.72;4952403;28;20366;-51
2022/08/03 10:46:30;;;;;;;33.33;5.45;;;;;;;29.57;46.89;101468.59;4941243;28;20450;-50
2022/08/03 10:48:56;;;;;;;31.67;5.30;;;;;;;29.78;46.60;101464.53;4970185;28;20101;-50
2022/08/03 10:51:22;;;;;;;28.08;4.75;;;;;;;30.16;46.38;101467.34;4969408;28;20057;-50
2022/08/03 10:53:47;;;;;;;33.13;4.90;;;;;;;29.84;46.07;101457.78;4959762;28;20466;-51
2022/08/03 10:59:15;;;;;;;25.05;3.97;;;;;;;29.69;45.73;101457.97;4976339;28;20042;-51
2022/08/03 11:01:52;;;;;;;36.07;4.77;;;;;;;29.78;45.60;101447.88;4976191;28;20026;-51
2022/08/03 11:04:23;;;;;;;28.05;4.35;;;;;;;29.96;45.00;101446.22;4973872;28;20073;-49
2022/08/03 11:07:21;;;;;;;21.45;4.25;;;;;;;29.69;44.53;101444.09;4976670;28;20023;-48
2022/08/03 11:09:51;;;;;;;29.20;3.67;;;;;;;30.21;43.78;101442.28;4954594;28;20138;-50
2022/08/03 11:12:26;;;;;;;35.67;4.32;;;;;;;30.50;44.05;101452.44;4976344;28;20057;-49
2022/08/03 11:14:53;;;;;;;25.30;4.20;;;;;;;31.12;43.29;101453.06;4947281;29;20095;-50
2022/08/03 11:17:19;;;;;;;26.83;4.13;;;;;;;31.35;41.98;101451.25;4974979;28;20027;-48
2022/08/03 11:19:45;;;;;;;31.00;4.37;;;;;;;32.09;41.05;101448.34;4962559;28;20402;-48
2022/08/03 11:22:11;;;;;;;;;;;;;;;32.56;39.82;101451.75;4965393;28;20493;-50
2022/08/03 11:24:37;;;;;;;28.13;4.60;;;;;;;32.72;39.99;101445.78;4957570;28;19918;-48
2022/08/03 11:27:18;;;;;;;;;;;;;;;32.37;40.53;101442.72;4979093;28;20186;-48